Podhale (bahama Islands) — C6TX9 — position and weather

sailwx.info

Track history (hours):
 
Tides and Currents Weather Stations Pressure Air Temp Water Temp Dewpoint Dewpoint Depression Visibility Wind Speed Wind Dir Waves Ship Positions

Podhale (bahama Islands)

Last reported at 2014-Nov-23 17:33 UTC. Time now 2014-Nov-27 08:13 UTC.
Position N 40°53' E 028°36'.

Length 190 m; beam 24 m.

Type: Cargo ship. MMSI: 311831000.

Date/timePositionNaut miles runAvg speedWind from/ knotsBaromVisibWave heightAir tempDewpointWater temp
2014-Nov-23 17:33N 40°53' E 028°36'1110.1
2014-Nov-23 16:30N 40°55' E 028°50'5 2.3
2014-Nov-23 14:30N 40°57' E 028°55'0 0.0
2014-Nov-23 12:18N 40°57' E 028°55'0 0.0
2014-Nov-23 11:23N 40°57' E 028°55'0 0.0
2014-Nov-23 09:30N 40°57' E 028°55'0 0.0
2014-Nov-23 08:30N 40°57' E 028°55'0 0.0
2014-Nov-23 07:30N 40°57' E 028°55'0 0.0
2014-Nov-23 05:06N 40°57' E 028°55'0 0.1
2014-Nov-23 04:31N 40°57' E 028°55'1 1.2
2014-Nov-23 03:33N 40°58' E 028°57'35410.3
2014-Nov-21 17:16N 46°35' E 031°25'6 7.7
2014-Nov-21 16:32N 46°35' E 031°33'9 8.3
2014-Nov-21 15:30N 46°36' E 031°46'8 8.1
2014-Nov-21 14:34N 46°39' E 031°56'18 3.5
2014-Nov-21 09:31N 46°56' E 032°01'0 0.0
2014-Nov-21 08:31N 46°56' E 032°01'0 0.0
2014-Nov-21 07:31N 46°56' E 032°01'0 0.0
2014-Nov-21 06:31N 46°56' E 032°01'0 0.0
2014-Nov-21 05:31N 46°56' E 032°01'0 0.0
2014-Nov-21 04:31N 46°56' E 032°01'0 0.0
2014-Nov-21 03:31N 46°56' E 032°01'0 0.0
2014-Nov-21 02:31N 46°56' E 032°01'0 0.0
2014-Nov-21 01:31N 46°56' E 032°01'0 0.0
2014-Nov-21 00:31N 46°56' E 032°01'0 0.0
2014-Nov-20 23:31N 46°56' E 032°01'0 0.0
2014-Nov-20 22:31N 46°56' E 032°01'0 0.0
2014-Nov-20 21:31N 46°56' E 032°01'0 0.0
2014-Nov-20 20:31N 46°56' E 032°01'0 0.0
2014-Nov-20 19:31N 46°56' E 032°01'0 0.0
2014-Nov-20 18:31N 46°56' E 032°01'0 0.0
2014-Nov-20 17:31N 46°56' E 032°01'0 0.0
2014-Nov-20 16:31N 46°56' E 032°01'0 0.0
2014-Nov-20 15:31N 46°56' E 032°01'0 0.0
2014-Nov-20 14:31N 46°56' E 032°01'0 0.0
2014-Nov-20 13:31N 46°56' E 032°01'0 0.0
2014-Nov-20 12:31N 46°56' E 032°01'0 0.0
2014-Nov-20 11:31N 46°56' E 032°01'0 0.0
2014-Nov-20 10:31N 46°56' E 032°01'0 0.0
2014-Nov-20 09:31N 46°56' E 032°01'0 0.0
2014-Nov-20 08:31N 46°56' E 032°01'0 0.0
2014-Nov-20 07:31N 46°56' E 032°01'0 0.0
2014-Nov-20 06:31N 46°56' E 032°01'0 0.0
2014-Nov-20 05:31N 46°56' E 032°01'0 0.0
2014-Nov-20 04:31N 46°56' E 032°01'0 0.0
2014-Nov-20 03:31N 46°56' E 032°01'0 0.0
2014-Nov-20 02:31N 46°56' E 032°01'0 0.0
2014-Nov-20 01:31N 46°56' E 032°01'0 0.0
2014-Nov-20 00:31N 46°56' E 032°01'0 0.0
2014-Nov-19 23:31N 46°56' E 032°01'0 0.0
2014-Nov-19 22:31N 46°56' E 032°01'0 0.0
2014-Nov-19 21:31N 46°56' E 032°01'0 0.0
2014-Nov-19 20:31N 46°56' E 032°01'0 0.0
2014-Nov-19 19:31N 46°56' E 032°01'0 0.0
2014-Nov-19 18:31N 46°56' E 032°01'0 0.0
2014-Nov-19 17:31N 46°56' E 032°01'0 0.0
2014-Nov-19 16:31N 46°56' E 032°01'0 0.0
2014-Nov-19 15:31N 46°56' E 032°01'0 0.0
2014-Nov-19 14:31N 46°56' E 032°01'0 0.0
2014-Nov-19 13:31N 46°56' E 032°01'0 0.0
2014-Nov-19 12:31N 46°56' E 032°01'0 0.0
2014-Nov-19 11:28N 46°56' E 032°01'0 0.0
2014-Nov-19 10:31N 46°56' E 032°01'0 0.0
2014-Nov-19 09:31N 46°56' E 032°01'0 0.0
2014-Nov-19 08:31N 46°56' E 032°01'0 0.0
2014-Nov-19 07:31N 46°56' E 032°01'0 0.0
2014-Nov-19 06:31N 46°56' E 032°01'0 0.0
2014-Nov-19 05:31N 46°56' E 032°01'0 0.0
2014-Nov-19 04:31N 46°56' E 032°01'0 0.0
2014-Nov-19 03:31N 46°56' E 032°01'0 0.0
2014-Nov-19 02:31N 46°56' E 032°01'0 0.0
2014-Nov-19 01:31N 46°56' E 032°01'0 0.0
2014-Nov-19 00:31N 46°56' E 032°01'0 0.0
2014-Nov-18 23:31N 46°56' E 032°01'0 0.0
2014-Nov-18 22:31N 46°56' E 032°01'0 0.0
2014-Nov-18 21:31N 46°56' E 032°01'0 0.0
2014-Nov-18 20:31N 46°56' E 032°01'0 0.0
2014-Nov-18 14:04N 46°56' E 032°01'0 0.0
2014-Nov-18 13:31N 46°56' E 032°01'0 0.0
2014-Nov-18 12:31N 46°56' E 032°01'0 0.0
2014-Nov-18 11:31N 46°56' E 032°01'0 0.0
2014-Nov-18 10:31N 46°56' E 032°01'0 0.0
2014-Nov-18 09:31N 46°56' E 032°01'0 0.0
2014-Nov-18 08:31N 46°56' E 032°01'0 0.0
2014-Nov-18 07:31N 46°56' E 032°01'0 0.0
2014-Nov-18 06:31N 46°56' E 032°01'0 0.0
2014-Nov-18 05:31N 46°56' E 032°01'0 0.0
2014-Nov-18 04:31N 46°56' E 032°01'0 0.0
2014-Nov-18 03:31N 46°56' E 032°01'0 0.0
2014-Nov-18 02:31N 46°56' E 032°01'0 0.0
2014-Nov-18 01:31N 46°56' E 032°01'0 0.0
2014-Nov-18 00:31N 46°56' E 032°01'0 0.0
2014-Nov-17 23:31N 46°56' E 032°01'0 0.0
2014-Nov-17 22:28N 46°56' E 032°01'0 0.0
2014-Nov-17 21:31N 46°56' E 032°01'0 0.0
2014-Nov-17 20:31N 46°56' E 032°01'0 0.0
2014-Nov-17 19:31N 46°56' E 032°01'0 0.0
2014-Nov-17 18:31N 46°56' E 032°01'0 0.0
2014-Nov-17 17:31N 46°56' E 032°01'0 0.0
2014-Nov-17 16:31N 46°56' E 032°01'0 0.0
2014-Nov-17 15:31N 46°56' E 032°01'0 0.0
2014-Nov-17 14:31N 46°56' E 032°01'0 0.0
2014-Nov-17 13:31N 46°56' E 032°01'0 0.0
2014-Nov-17 12:31N 46°56' E 032°01'0 0.0
2014-Nov-17 11:31N 46°56' E 032°01'0 0.0
2014-Nov-17 10:31N 46°56' E 032°01'0 0.0
2014-Nov-17 09:31N 46°56' E 032°01'0 0.0
2014-Nov-17 08:31N 46°56' E 032°01'0 0.0
2014-Nov-17 07:31N 46°56' E 032°01'0 0.3
2014-Nov-17 06:32N 46°56' E 032°01'0 0.0
2014-Nov-17 05:32N 46°56' E 032°01'0 0.0
2014-Nov-17 04:32N 46°56' E 032°01'0 0.0
2014-Nov-16 22:05N 46°56' E 032°01'0 0.0
2014-Nov-16 21:29N 46°56' E 032°01'0 0.0
2014-Nov-16 20:32N 46°56' E 032°01'0 0.0
2014-Nov-16 19:32N 46°56' E 032°01'0 0.0
2014-Nov-16 18:32N 46°56' E 032°01'0 0.0
2014-Nov-16 17:32N 46°56' E 032°01'0 0.0
2014-Nov-16 16:32N 46°56' E 032°01'0 0.0
2014-Nov-16 15:32N 46°56' E 032°01'0 0.0
2014-Nov-16 14:32N 46°56' E 032°01'0 0.0
2014-Nov-16 13:32N 46°56' E 032°01'0 0.0
2014-Nov-16 12:32N 46°56' E 032°01'0 0.0
2014-Nov-16 11:32N 46°56' E 032°01'0 0.0
2014-Nov-16 10:32N 46°56' E 032°01'0 0.0
2014-Nov-16 09:32N 46°56' E 032°01'0 0.0
2014-Nov-16 08:32N 46°56' E 032°01'0 0.0
2014-Nov-16 07:29N 46°56' E 032°01'0 0.0
2014-Nov-16 06:32N 46°56' E 032°01'0 0.1
2014-Nov-16 05:32N 46°56' E 032°01'0 0.0
2014-Nov-16 04:32N 46°56' E 032°01'0 0.0
2014-Nov-16 03:32N 46°56' E 032°01'0 0.0
2014-Nov-16 02:32N 46°56' E 032°01'0 0.0
2014-Nov-16 01:32N 46°56' E 032°01'0 0.0
2014-Nov-16 00:32N 46°56' E 032°01'0 0.0
2014-Nov-15 23:32N 46°56' E 032°01'0 0.0
2014-Nov-15 22:32N 46°56' E 032°01'0 0.0
2014-Nov-15 21:32N 46°56' E 032°01'0 0.0
2014-Nov-15 20:32N 46°56' E 032°01'0 0.0
2014-Nov-15 19:32N 46°56' E 032°01'0 0.0
2014-Nov-15 18:31N 46°56' E 032°01'0 0.0
2014-Nov-15 17:32N 46°56' E 032°01'0 0.0
2014-Nov-15 16:32N 46°56' E 032°01'0 0.0
2014-Nov-15 15:32N 46°56' E 032°01'0 0.0
2014-Nov-15 14:32N 46°56' E 032°01'0 0.0
2014-Nov-15 13:32N 46°56' E 032°01'0 0.0
2014-Nov-15 12:32N 46°56' E 032°01'0 0.0
2014-Nov-15 11:32N 46°56' E 032°01'0 0.0
2014-Nov-15 10:31N 46°56' E 032°01'0 0.0
2014-Nov-15 09:32N 46°56' E 032°01'0 0.0
2014-Nov-15 08:31N 46°56' E 032°01'0 0.0
2014-Nov-15 07:32N 46°56' E 032°01'0 0.1
2014-Nov-15 06:31N 46°56' E 032°01'0 0.0
2014-Nov-15 05:32N 46°56' E 032°01'0 0.0
2014-Nov-15 04:31N 46°56' E 032°01'0 0.0
2014-Nov-15 03:31N 46°56' E 032°01'0 0.0
2014-Nov-15 02:31N 46°56' E 032°01'0 0.0
2014-Nov-15 01:31N 46°56' E 032°01'0 0.0
2014-Nov-15 00:31N 46°56' E 032°01'0 0.0
2014-Nov-14 23:32N 46°56' E 032°01'0 0.0
2014-Nov-14 22:31N 46°56' E 032°01'0 0.0
2014-Nov-14 21:31N 46°56' E 032°01'0 0.0
2014-Nov-14 20:31N 46°56' E 032°01'0 0.0
2014-Nov-14 19:31N 46°56' E 032°01'0 0.0
2014-Nov-14 18:31N 46°56' E 032°01'0 0.0
2014-Nov-14 17:31N 46°56' E 032°01'0 0.1
2014-Nov-14 16:31N 46°56' E 032°01'1 1.5
2014-Nov-14 15:34N 46°55' E 032°01'1010.0
2014-Nov-14 14:34N 46°46' E 031°53'16 8.1
2014-Nov-14 12:34N 46°35' E 031°36'27 1.9
2014-Nov-13 22:11N 46°20' E 031°04'  
Track history (hours):
 
Tides and Currents Weather Stations Pressure Air Temp Water Temp Dewpoint Dewpoint Depression Visibility Wind Speed Wind Dir Waves Ship Positions

Podhale (bahama Islands)

Last reported at 2014-Nov-23 17:33 UTC. Time now 2014-Nov-27 08:13 UTC.
Position N 40°53' E 028°36'.

Length 190 m; beam 24 m.

Type: Cargo ship. MMSI: 311831000.

Date/timePositionNaut miles runAvg speedWind from/ knotsBaromVisibWave heightAir tempDewpointWater temp
2014-Nov-23 17:33N 40°53' E 028°36'1110.1
2014-Nov-23 16:30N 40°55' E 028°50'5 2.3
2014-Nov-23 14:30N 40°57' E 028°55'0 0.0
2014-Nov-23 12:18N 40°57' E 028°55'0 0.0
2014-Nov-23 11:23N 40°57' E 028°55'0 0.0
2014-Nov-23 09:30N 40°57' E 028°55'0 0.0
2014-Nov-23 08:30N 40°57' E 028°55'0 0.0
2014-Nov-23 07:30N 40°57' E 028°55'0 0.0
2014-Nov-23 05:06N 40°57' E 028°55'0 0.1
2014-Nov-23 04:31N 40°57' E 028°55'1 1.2
2014-Nov-23 03:33N 40°58' E 028°57'35410.3
2014-Nov-21 17:16N 46°35' E 031°25'6 7.7
2014-Nov-21 16:32N 46°35' E 031°33'9 8.3
2014-Nov-21 15:30N 46°36' E 031°46'8 8.1
2014-Nov-21 14:34N 46°39' E 031°56'18 3.5
2014-Nov-21 09:31N 46°56' E 032°01'0 0.0
2014-Nov-21 08:31N 46°56' E 032°01'0 0.0
2014-Nov-21 07:31N 46°56' E 032°01'0 0.0
2014-Nov-21 06:31N 46°56' E 032°01'0 0.0
2014-Nov-21 05:31N 46°56' E 032°01'0 0.0
2014-Nov-21 04:31N 46°56' E 032°01'0 0.0
2014-Nov-21 03:31N 46°56' E 032°01'0 0.0
2014-Nov-21 02:31N 46°56' E 032°01'0 0.0
2014-Nov-21 01:31N 46°56' E 032°01'0 0.0
2014-Nov-21 00:31N 46°56' E 032°01'0 0.0
2014-Nov-20 23:31N 46°56' E 032°01'0 0.0
2014-Nov-20 22:31N 46°56' E 032°01'0 0.0
2014-Nov-20 21:31N 46°56' E 032°01'0 0.0
2014-Nov-20 20:31N 46°56' E 032°01'0 0.0
2014-Nov-20 19:31N 46°56' E 032°01'0 0.0
2014-Nov-20 18:31N 46°56' E 032°01'0 0.0
2014-Nov-20 17:31N 46°56' E 032°01'0 0.0
2014-Nov-20 16:31N 46°56' E 032°01'0 0.0
2014-Nov-20 15:31N 46°56' E 032°01'0 0.0
2014-Nov-20 14:31N 46°56' E 032°01'0 0.0
2014-Nov-20 13:31N 46°56' E 032°01'0 0.0
2014-Nov-20 12:31N 46°56' E 032°01'0 0.0
2014-Nov-20 11:31N 46°56' E 032°01'0 0.0
2014-Nov-20 10:31N 46°56' E 032°01'0 0.0
2014-Nov-20 09:31N 46°56' E 032°01'0 0.0
2014-Nov-20 08:31N 46°56' E 032°01'0 0.0
2014-Nov-20 07:31N 46°56' E 032°01'0 0.0
2014-Nov-20 06:31N 46°56' E 032°01'0 0.0
2014-Nov-20 05:31N 46°56' E 032°01'0 0.0
2014-Nov-20 04:31N 46°56' E 032°01'0 0.0
2014-Nov-20 03:31N 46°56' E 032°01'0 0.0
2014-Nov-20 02:31N 46°56' E 032°01'0 0.0
2014-Nov-20 01:31N 46°56' E 032°01'0 0.0
2014-Nov-20 00:31N 46°56' E 032°01'0 0.0
2014-Nov-19 23:31N 46°56' E 032°01'0 0.0
2014-Nov-19 22:31N 46°56' E 032°01'0 0.0
2014-Nov-19 21:31N 46°56' E 032°01'0 0.0
2014-Nov-19 20:31N 46°56' E 032°01'0 0.0
2014-Nov-19 19:31N 46°56' E 032°01'0 0.0
2014-Nov-19 18:31N 46°56' E 032°01'0 0.0
2014-Nov-19 17:31N 46°56' E 032°01'0 0.0
2014-Nov-19 16:31N 46°56' E 032°01'0 0.0
2014-Nov-19 15:31N 46°56' E 032°01'0 0.0
2014-Nov-19 14:31N 46°56' E 032°01'0 0.0
2014-Nov-19 13:31N 46°56' E 032°01'0 0.0
2014-Nov-19 12:31N 46°56' E 032°01'0 0.0
2014-Nov-19 11:28N 46°56' E 032°01'0 0.0
2014-Nov-19 10:31N 46°56' E 032°01'0 0.0
2014-Nov-19 09:31N 46°56' E 032°01'0 0.0
2014-Nov-19 08:31N 46°56' E 032°01'0 0.0
2014-Nov-19 07:31N 46°56' E 032°01'0 0.0
2014-Nov-19 06:31N 46°56' E 032°01'0 0.0
2014-Nov-19 05:31N 46°56' E 032°01'0 0.0
2014-Nov-19 04:31N 46°56' E 032°01'0 0.0
2014-Nov-19 03:31N 46°56' E 032°01'0 0.0
2014-Nov-19 02:31N 46°56' E 032°01'0 0.0
2014-Nov-19 01:31N 46°56' E 032°01'0 0.0
2014-Nov-19 00:31N 46°56' E 032°01'0 0.0
2014-Nov-18 23:31N 46°56' E 032°01'0 0.0
2014-Nov-18 22:31N 46°56' E 032°01'0 0.0
2014-Nov-18 21:31N 46°56' E 032°01'0 0.0
2014-Nov-18 20:31N 46°56' E 032°01'0 0.0
2014-Nov-18 14:04N 46°56' E 032°01'0 0.0
2014-Nov-18 13:31N 46°56' E 032°01'0 0.0
2014-Nov-18 12:31N 46°56' E 032°01'0 0.0
2014-Nov-18 11:31N 46°56' E 032°01'0 0.0
2014-Nov-18 10:31N 46°56' E 032°01'0 0.0
2014-Nov-18 09:31N 46°56' E 032°01'0 0.0
2014-Nov-18 08:31N 46°56' E 032°01'0 0.0
2014-Nov-18 07:31N 46°56' E 032°01'0 0.0
2014-Nov-18 06:31N 46°56' E 032°01'0 0.0
2014-Nov-18 05:31N 46°56' E 032°01'0 0.0
2014-Nov-18 04:31N 46°56' E 032°01'0 0.0
2014-Nov-18 03:31N 46°56' E 032°01'0 0.0
2014-Nov-18 02:31N 46°56' E 032°01'0 0.0
2014-Nov-18 01:31N 46°56' E 032°01'0 0.0
2014-Nov-18 00:31N 46°56' E 032°01'0 0.0
2014-Nov-17 23:31N 46°56' E 032°01'0 0.0
2014-Nov-17 22:28N 46°56' E 032°01'0 0.0
2014-Nov-17 21:31N 46°56' E 032°01'0 0.0
2014-Nov-17 20:31N 46°56' E 032°01'0 0.0
2014-Nov-17 19:31N 46°56' E 032°01'0 0.0
2014-Nov-17 18:31N 46°56' E 032°01'0 0.0
2014-Nov-17 17:31N 46°56' E 032°01'0 0.0
2014-Nov-17 16:31N 46°56' E 032°01'0 0.0
2014-Nov-17 15:31N 46°56' E 032°01'0 0.0
2014-Nov-17 14:31N 46°56' E 032°01'0 0.0
2014-Nov-17 13:31N 46°56' E 032°01'0 0.0
2014-Nov-17 12:31N 46°56' E 032°01'0 0.0
2014-Nov-17 11:31N 46°56' E 032°01'0 0.0
2014-Nov-17 10:31N 46°56' E 032°01'0 0.0
2014-Nov-17 09:31N 46°56' E 032°01'0 0.0
2014-Nov-17 08:31N 46°56' E 032°01'0 0.0
2014-Nov-17 07:31N 46°56' E 032°01'0 0.3
2014-Nov-17 06:32N 46°56' E 032°01'0 0.0
2014-Nov-17 05:32N 46°56' E 032°01'0 0.0
2014-Nov-17 04:32N 46°56' E 032°01'0 0.0
2014-Nov-16 22:05N 46°56' E 032°01'0 0.0
2014-Nov-16 21:29N 46°56' E 032°01'0 0.0
2014-Nov-16 20:32N 46°56' E 032°01'0 0.0
2014-Nov-16 19:32N 46°56' E 032°01'0 0.0
2014-Nov-16 18:32N 46°56' E 032°01'0 0.0
2014-Nov-16 17:32N 46°56' E 032°01'0 0.0
2014-Nov-16 16:32N 46°56' E 032°01'0 0.0
2014-Nov-16 15:32N 46°56' E 032°01'0 0.0
2014-Nov-16 14:32N 46°56' E 032°01'0 0.0
2014-Nov-16 13:32N 46°56' E 032°01'0 0.0
2014-Nov-16 12:32N 46°56' E 032°01'0 0.0
2014-Nov-16 11:32N 46°56' E 032°01'0 0.0
2014-Nov-16 10:32N 46°56' E 032°01'0 0.0
2014-Nov-16 09:32N 46°56' E 032°01'0 0.0
2014-Nov-16 08:32N 46°56' E 032°01'0 0.0
2014-Nov-16 07:29N 46°56' E 032°01'0 0.0
2014-Nov-16 06:32N 46°56' E 032°01'0 0.1
2014-Nov-16 05:32N 46°56' E 032°01'0 0.0
2014-Nov-16 04:32N 46°56' E 032°01'0 0.0
2014-Nov-16 03:32N 46°56' E 032°01'0 0.0
2014-Nov-16 02:32N 46°56' E 032°01'0 0.0
2014-Nov-16 01:32N 46°56' E 032°01'0 0.0
2014-Nov-16 00:32N 46°56' E 032°01'0 0.0
2014-Nov-15 23:32N 46°56' E 032°01'0 0.0
2014-Nov-15 22:32N 46°56' E 032°01'0 0.0
2014-Nov-15 21:32N 46°56' E 032°01'0 0.0
2014-Nov-15 20:32N 46°56' E 032°01'0 0.0
2014-Nov-15 19:32N 46°56' E 032°01'0 0.0
2014-Nov-15 18:31N 46°56' E 032°01'0 0.0
2014-Nov-15 17:32N 46°56' E 032°01'0 0.0
2014-Nov-15 16:32N 46°56' E 032°01'0 0.0
2014-Nov-15 15:32N 46°56' E 032°01'0 0.0
2014-Nov-15 14:32N 46°56' E 032°01'0 0.0
2014-Nov-15 13:32N 46°56' E 032°01'0 0.0
2014-Nov-15 12:32N 46°56' E 032°01'0 0.0
2014-Nov-15 11:32N 46°56' E 032°01'0 0.0
2014-Nov-15 10:31N 46°56' E 032°01'0 0.0
2014-Nov-15 09:32N 46°56' E 032°01'0 0.0
2014-Nov-15 08:31N 46°56' E 032°01'0 0.0
2014-Nov-15 07:32N 46°56' E 032°01'0 0.1
2014-Nov-15 06:31N 46°56' E 032°01'0 0.0
2014-Nov-15 05:32N 46°56' E 032°01'0 0.0
2014-Nov-15 04:31N 46°56' E 032°01'0 0.0
2014-Nov-15 03:31N 46°56' E 032°01'0 0.0
2014-Nov-15 02:31N 46°56' E 032°01'0 0.0
2014-Nov-15 01:31N 46°56' E 032°01'0 0.0
2014-Nov-15 00:31N 46°56' E 032°01'0 0.0
2014-Nov-14 23:32N 46°56' E 032°01'0 0.0
2014-Nov-14 22:31N 46°56' E 032°01'0 0.0
2014-Nov-14 21:31N 46°56' E 032°01'0 0.0
2014-Nov-14 20:31N 46°56' E 032°01'0 0.0
2014-Nov-14 19:31N 46°56' E 032°01'0 0.0
2014-Nov-14 18:31N 46°56' E 032°01'0 0.0
2014-Nov-14 17:31N 46°56' E 032°01'0 0.1
2014-Nov-14 16:31N 46°56' E 032°01'1 1.5
2014-Nov-14 15:34N 46°55' E 032°01'1010.0
2014-Nov-14 14:34N 46°46' E 031°53'16 8.1
2014-Nov-14 12:34N 46°35' E 031°36'27 1.9
2014-Nov-13 22:11N 46°20' E 031°04'  

Dump ship's entire track history